createdAt,value
2023-09-16T00:02:01.387Z,100357.87
2023-09-16T00:04:28.328Z,100359.82
2023-09-16T00:06:58.809Z,100358.71
2023-09-16T00:09:28.112Z,100356.73
2023-09-16T00:11:54.940Z,100358.92
2023-09-16T00:14:23.379Z,100354.92
2023-09-16T00:16:51.313Z,100358.21
2023-09-16T00:19:18.241Z,100358.07
2023-09-16T00:21:48.111Z,100360.66
2023-09-16T00:24:15.216Z,100360.39
2023-09-16T00:26:42.307Z,100366.16
2023-09-16T00:29:09.567Z,100363.73
2023-09-16T00:31:36.989Z,100366.00
2023-09-16T00:34:04.038Z,100368.95
2023-09-16T00:36:33.694Z,100372.55
2023-09-16T00:39:00.933Z,100376.82
2023-09-16T00:41:27.830Z,100380.25
2023-09-16T00:43:54.630Z,100381.09
2023-09-16T00:46:21.492Z,100384.47
2023-09-16T00:48:48.714Z,100384.14
2023-09-16T00:51:15.902Z,100386.58
2023-09-16T00:53:43.631Z,100391.54
2023-09-16T00:56:11.134Z,100394.92
2023-09-16T00:58:38.133Z,100398.45
2023-09-16T01:01:05.002Z,100399.64
2023-09-16T01:03:32.700Z,100402.11
2023-09-16T01:05:59.728Z,100402.15
2023-09-16T01:08:26.784Z,100408.98
2023-09-16T01:10:53.632Z,100408.00
2023-09-16T01:13:21.070Z,100409.91
2023-09-16T01:16:00.677Z,100413.56
2023-09-16T01:18:36.890Z,100414.98
2023-09-16T01:21:07.411Z,100418.88
2023-09-16T01:23:37.168Z,100422.95
2023-09-16T01:26:04.608Z,100424.80
2023-09-16T01:28:31.703Z,100422.39
2023-09-16T01:30:58.422Z,100425.70
2023-09-16T01:33:35.065Z,100421.92
2023-09-16T01:36:04.632Z,100425.33
2023-09-16T01:38:33.192Z,100417.75
2023-09-16T01:41:00.162Z,100424.34
2023-09-16T01:43:27.449Z,100425.34
2023-09-16T01:45:54.303Z,100431.30
2023-09-16T01:48:29.846Z,100430.62
2023-09-16T01:51:05.159Z,100432.92
2023-09-16T01:53:34.057Z,100434.36
2023-09-16T01:56:01.189Z,100438.46
2023-09-16T01:58:28.201Z,100442.48
2023-09-16T02:00:55.040Z,100444.98
2023-09-16T02:03:21.902Z,100448.67
2023-09-16T02:05:49.933Z,100449.41
2023-09-16T02:08:17.255Z,100446.81
2023-09-16T02:10:44.141Z,100451.09
2023-09-16T02:13:14.288Z,100450.17
2023-09-16T02:15:43.526Z,100451.13
2023-09-16T02:18:10.417Z,100450.91
2023-09-16T02:20:37.258Z,100450.23
2023-09-16T02:23:04.691Z,100451.50
2023-09-16T02:25:37.270Z,100453.58
2023-09-16T02:28:04.833Z,100454.77
2023-09-16T02:30:31.639Z,100458.36
2023-09-16T02:33:05.427Z,100455.33
2023-09-16T02:35:33.413Z,100458.31
2023-09-16T02:38:02.766Z,100456.92
2023-09-16T02:40:30.145Z,100462.04
2023-09-16T02:42:58.486Z,100461.66
2023-09-16T02:45:25.154Z,100461.69
2023-09-16T02:47:51.971Z,100462.75
2023-09-16T02:50:18.808Z,100460.54
2023-09-16T02:52:45.819Z,100463.94
2023-09-16T02:55:12.546Z,100462.36
2023-09-16T02:57:39.343Z,100469.09
2023-09-16T03:00:07.979Z,100469.86
2023-09-16T03:02:35.198Z,100472.09
2023-09-16T03:05:03.167Z,100475.39
2023-09-16T03:07:30.204Z,100479.38
2023-09-16T03:09:59.720Z,100483.16
2023-09-16T03:12:27.788Z,100482.80
2023-09-16T03:14:54.372Z,100484.55
2023-09-16T03:17:21.323Z,100485.52
2023-09-16T03:19:48.409Z,100485.21
2023-09-16T03:22:15.029Z,100489.56
2023-09-16T03:24:42.753Z,100489.55
2023-09-16T03:27:10.007Z,100496.14
2023-09-16T03:29:37.551Z,100496.70
2023-09-16T03:32:04.796Z,100499.00
2023-09-16T03:34:31.745Z,100502.02
2023-09-16T03:37:00.159Z,100502.15
2023-09-16T03:39:27.395Z,100504.96
2023-09-16T03:41:55.454Z,100503.05
2023-09-16T03:44:22.683Z,100504.46
2023-09-16T03:46:49.507Z,100510.02
2023-09-16T03:49:16.422Z,100514.86
2023-09-16T03:51:51.498Z,100514.61
2023-09-16T03:54:18.536Z,100513.04
2023-09-16T03:56:45.437Z,100514.27
2023-09-16T03:59:14.484Z,100513.61
2023-09-16T04:01:43.288Z,100516.35
2023-09-16T04:04:11.750Z,100519.44
2023-09-16T04:09:31.643Z,100520.89
2023-09-16T04:11:58.738Z,100519.27
2023-09-16T04:14:25.452Z,100523.77
2023-09-16T04:16:53.848Z,100530.64
2023-09-16T04:19:20.664Z,100528.67
2023-09-16T04:21:51.978Z,100529.82
2023-09-16T04:24:19.956Z,100531.42
2023-09-16T04:26:49.023Z,100532.15
2023-09-16T04:29:17.597Z,100531.23
2023-09-16T04:31:46.276Z,100535.30
2023-09-16T04:34:15.252Z,100537.97
2023-09-16T04:36:44.438Z,100538.82
2023-09-16T04:39:11.720Z,100541.09
2023-09-16T04:41:38.621Z,100539.27
2023-09-16T04:44:08.916Z,100546.66
2023-09-16T04:46:36.215Z,100543.98
2023-09-16T04:49:06.621Z,100546.84
2023-09-16T04:51:34.339Z,100551.27
2023-09-16T04:54:02.234Z,100551.09
2023-09-16T04:56:29.513Z,100553.52
2023-09-16T04:58:58.664Z,100553.74
2023-09-16T05:01:27.005Z,100552.20
2023-09-16T05:03:53.765Z,100554.61
2023-09-16T05:06:24.502Z,100556.81
2023-09-16T05:08:51.944Z,100553.95
2023-09-16T05:11:19.135Z,100555.42
2023-09-16T05:13:51.851Z,100560.30
2023-09-16T05:16:19.268Z,100563.45
2023-09-16T05:18:46.518Z,100568.64
2023-09-16T05:21:13.817Z,100566.38
2023-09-16T05:23:41.067Z,100572.64
2023-09-16T05:26:09.987Z,100573.79
2023-09-16T05:28:41.876Z,100574.46
2023-09-16T05:31:08.802Z,100574.77
2023-09-16T05:33:37.465Z,100576.76
2023-09-16T05:36:04.859Z,100581.44
2023-09-16T05:38:34.227Z,100583.55
2023-09-16T05:41:02.432Z,100584.78
2023-09-16T05:43:32.771Z,100586.55
2023-09-16T05:46:01.841Z,100586.61
2023-09-16T05:48:29.258Z,100580.11
2023-09-16T05:50:57.665Z,100581.70
2023-09-16T05:53:26.227Z,100583.08
2023-09-16T05:55:57.016Z,100582.46
2023-09-16T05:58:23.735Z,100585.25
2023-09-16T06:00:56.386Z,100584.74
2023-09-16T06:03:23.457Z,100583.13
2023-09-16T06:05:59.571Z,100584.66
2023-09-16T06:08:26.420Z,100585.11
2023-09-16T06:10:53.252Z,100585.54
2023-09-16T06:13:20.544Z,100584.36
2023-09-16T06:15:47.672Z,100586.55
2023-09-16T06:18:14.591Z,100587.11
2023-09-16T06:20:43.461Z,100591.83
2023-09-16T06:23:10.391Z,100590.68
2023-09-16T06:25:38.661Z,100592.53
2023-09-16T06:28:07.875Z,100593.30
2023-09-16T06:30:35.663Z,100594.67
2023-09-16T06:33:03.128Z,100596.92
2023-09-16T06:35:30.141Z,100595.98
2023-09-16T06:37:57.088Z,100599.20
2023-09-16T06:40:24.086Z,100599.28
2023-09-16T06:42:53.142Z,100608.11
2023-09-16T06:45:21.211Z,100608.85
2023-09-16T06:47:49.102Z,100612.89
2023-09-16T06:50:16.175Z,100612.83
2023-09-16T06:52:43.302Z,100617.88
2023-09-16T06:55:09.981Z,100614.83
2023-09-16T07:00:21.928Z,100621.52
2023-09-16T07:02:53.093Z,100623.05
2023-09-16T07:05:19.887Z,100622.95
2023-09-16T07:07:46.851Z,100623.30
2023-09-16T07:10:14.072Z,100624.14
2023-09-16T07:12:41.097Z,100625.00
2023-09-16T07:15:10.353Z,100630.58
2023-09-16T07:17:37.562Z,100632.43
2023-09-16T07:20:05.060Z,100634.79
2023-09-16T07:22:31.943Z,100638.20
2023-09-16T07:25:00.346Z,100643.33
2023-09-16T07:27:27.318Z,100640.82
2023-09-16T07:29:54.166Z,100641.59
2023-09-16T07:32:21.115Z,100643.07
2023-09-16T07:34:47.989Z,100642.17
2023-09-16T07:37:14.946Z,100639.77
2023-09-16T07:39:42.097Z,100640.70
2023-09-16T07:42:10.441Z,100640.48
2023-09-16T07:44:39.318Z,100642.55
2023-09-16T07:47:06.386Z,100645.46
2023-09-16T07:49:33.320Z,100643.52
2023-09-16T07:52:00.112Z,100642.40
2023-09-16T07:54:27.135Z,100644.54
2023-09-16T07:56:54.072Z,100647.35
2023-09-16T07:59:21.792Z,100649.91
2023-09-16T08:01:51.631Z,100648.44
2023-09-16T08:04:18.881Z,100657.03
2023-09-16T08:06:47.622Z,100653.10
2023-09-16T08:09:14.632Z,100654.84
2023-09-16T08:11:43.645Z,100654.70
2023-09-16T08:14:10.825Z,100651.34
2023-09-16T08:16:37.893Z,100655.55
2023-09-16T08:19:06.595Z,100656.52
2023-09-16T08:21:35.532Z,100657.70
2023-09-16T08:24:04.868Z,100661.26
2023-09-16T08:26:32.978Z,100660.40
2023-09-16T08:29:02.492Z,100662.45
2023-09-16T08:31:29.770Z,100660.75
2023-09-16T08:34:01.514Z,100660.33
2023-09-16T08:36:28.940Z,100664.44
2023-09-16T08:38:56.061Z,100665.69
2023-09-16T08:41:30.286Z,100666.03
2023-09-16T08:44:00.948Z,100668.75
2023-09-16T08:46:59.619Z,100669.44
2023-09-16T08:49:56.208Z,100674.44
2023-09-16T08:52:24.121Z,100673.89
2023-09-16T08:54:50.989Z,100676.73
2023-09-16T08:57:17.959Z,100676.67
2023-09-16T08:59:44.810Z,100675.09
2023-09-16T09:02:11.553Z,100680.06
2023-09-16T09:04:39.931Z,100680.87
2023-09-16T09:07:06.822Z,100678.73
2023-09-16T09:09:33.472Z,100679.57
2023-09-16T09:12:00.664Z,100680.55
2023-09-16T09:14:28.031Z,100683.38
2023-09-16T09:16:55.210Z,100681.09
2023-09-16T09:19:22.108Z,100680.80
2023-09-16T09:21:51.276Z,100681.13
2023-09-16T09:24:17.972Z,100680.31
2023-09-16T09:26:44.955Z,100682.55
2023-09-16T09:29:12.969Z,100684.44
2023-09-16T09:31:40.643Z,100684.98
2023-09-16T09:34:18.354Z,100684.21
2023-09-16T09:36:47.345Z,100687.05
2023-09-16T09:39:14.506Z,100683.70
2023-09-16T09:41:50.238Z,100681.35
2023-09-16T09:44:17.230Z,100680.16
2023-09-16T09:46:45.360Z,100679.77
2023-09-16T09:49:14.692Z,100678.23
2023-09-16T09:51:43.725Z,100677.61
2023-09-16T09:54:10.929Z,100679.60
2023-09-16T09:56:37.932Z,100682.35
2023-09-16T09:59:05.010Z,100680.67
2023-09-16T10:01:35.811Z,100681.21
2023-09-16T10:04:03.165Z,100676.92
2023-09-16T10:06:30.355Z,100678.54
2023-09-16T10:08:57.180Z,100678.92
2023-09-16T10:11:29.366Z,100676.95
2023-09-16T10:13:58.328Z,100678.55
2023-09-16T10:16:25.329Z,100676.55
2023-09-16T10:18:52.426Z,100675.06
2023-09-16T10:21:19.744Z,100677.09
2023-09-16T10:23:47.000Z,100676.52
2023-09-16T10:26:13.922Z,100672.21
2023-09-16T10:28:44.478Z,100670.62
2023-09-16T10:31:12.108Z,100672.21
2023-09-16T10:33:40.737Z,100670.33
2023-09-16T10:36:09.630Z,100670.30
2023-09-16T10:38:36.487Z,100669.02
2023-09-16T10:41:05.800Z,100671.47
2023-09-16T10:43:33.722Z,100672.86
2023-09-16T10:46:01.557Z,100677.32
2023-09-16T10:48:28.742Z,100676.52
2023-09-16T10:50:58.020Z,100672.59
2023-09-16T10:53:27.789Z,100669.52
2023-09-16T10:56:04.457Z,100668.85
2023-09-16T10:58:49.732Z,100671.35
2023-09-16T11:01:20.064Z,100665.55
2023-09-16T11:03:52.046Z,100663.10
2023-09-16T11:06:19.027Z,100663.89
2023-09-16T11:08:45.993Z,100661.66
2023-09-16T11:11:15.185Z,100664.52
2023-09-16T11:13:41.992Z,100658.80
2023-09-16T11:16:10.780Z,100658.25
2023-09-16T11:18:42.724Z,100653.08
2023-09-16T11:21:09.797Z,100649.29
2023-09-16T11:23:37.515Z,100643.48
2023-09-16T11:26:05.301Z,100644.02
2023-09-16T11:28:32.363Z,100642.79
2023-09-16T11:31:06.551Z,100643.29
2023-09-16T11:33:34.865Z,100632.32
2023-09-16T11:36:14.368Z,100635.58
2023-09-16T11:38:54.488Z,100632.96
2023-09-16T11:41:21.210Z,100631.21
2023-09-16T11:43:48.051Z,100633.75
2023-09-16T11:46:15.032Z,100631.04
2023-09-16T11:48:56.079Z,100630.96
2023-09-16T11:51:25.652Z,100628.95
2023-09-16T11:53:55.243Z,100632.39
2023-09-16T11:56:26.512Z,100629.03
2023-09-16T11:58:56.637Z,100629.12
2023-09-16T12:01:32.165Z,100628.45
2023-09-16T12:04:00.006Z,100630.11
2023-09-16T12:06:27.602Z,100631.08
2023-09-16T12:08:56.435Z,100628.98
2023-09-16T12:11:24.075Z,100628.58
2023-09-16T12:13:51.036Z,100630.30
2023-09-16T12:16:18.281Z,100625.23
2023-09-16T12:18:45.701Z,100619.92
2023-09-16T12:21:12.876Z,100618.11
2023-09-16T12:23:43.075Z,100617.33
2023-09-16T12:26:10.784Z,100618.90
2023-09-16T12:28:40.142Z,100620.06
2023-09-16T12:31:11.908Z,100616.63
2023-09-16T12:33:42.078Z,100619.64
2023-09-16T12:36:09.265Z,100612.88
2023-09-16T12:38:36.673Z,100609.80
2023-09-16T12:41:03.938Z,100606.70
2023-09-16T12:43:31.251Z,100608.23
2023-09-16T12:45:59.149Z,100604.88
2023-09-16T12:48:27.061Z,100606.04
2023-09-16T12:50:54.477Z,100605.03
2023-09-16T12:53:23.990Z,100606.18
2023-09-16T12:55:53.130Z,100600.83
2023-09-16T12:58:23.759Z,100597.52
2023-09-16T13:00:51.543Z,100595.38
2023-09-16T13:03:18.631Z,100596.59
2023-09-16T13:05:50.906Z,100594.75
2023-09-16T13:08:20.670Z,100596.48
2023-09-16T13:10:51.688Z,100596.84
2023-09-16T13:13:18.679Z,100598.23
2023-09-16T13:15:46.411Z,100597.73
2023-09-16T13:18:13.460Z,100595.62
2023-09-16T13:20:40.994Z,100593.89
2023-09-16T13:23:25.553Z,100587.67
2023-09-16T13:26:10.652Z,100585.58
2023-09-16T13:28:38.522Z,100585.49
2023-09-16T13:31:05.417Z,100583.86
2023-09-16T13:33:57.761Z,100586.40
2023-09-16T13:36:25.556Z,100584.02
2023-09-16T13:38:52.783Z,100588.61
2023-09-16T13:41:21.917Z,100596.19
2023-09-16T13:43:49.111Z,100593.54
2023-09-16T13:46:16.388Z,100594.05
2023-09-16T13:48:45.632Z,100593.86
2023-09-16T13:51:15.490Z,100590.80
2023-09-16T13:53:42.729Z,100590.30
2023-09-16T13:56:12.799Z,100588.50
2023-09-16T13:58:41.193Z,100586.09
2023-09-16T14:01:07.905Z,100586.91
2023-09-16T14:03:37.631Z,100590.14
2023-09-16T14:06:07.036Z,100592.23
2023-09-16T14:08:35.471Z,100591.65
2023-09-16T14:11:02.395Z,100590.04
2023-09-16T14:13:29.601Z,100588.42
2023-09-16T14:15:56.917Z,100582.40
2023-09-16T14:18:23.820Z,100581.96
2023-09-16T14:20:51.216Z,100583.14
2023-09-16T14:23:19.157Z,100582.78
2023-09-16T14:25:46.384Z,100585.27
2023-09-16T14:28:13.292Z,100581.23
2023-09-16T14:30:40.286Z,100579.71
2023-09-16T14:33:07.321Z,100578.51
2023-09-16T14:35:34.557Z,100580.98
2023-09-16T14:38:04.809Z,100584.30
2023-09-16T14:40:34.317Z,100585.13
2023-09-16T14:43:02.287Z,100581.67
2023-09-16T14:45:29.037Z,100579.45
2023-09-16T14:47:56.033Z,100576.30
2023-09-16T14:50:23.064Z,100577.10
2023-09-16T14:52:49.930Z,100575.42
2023-09-16T14:55:18.388Z,100578.73
2023-09-16T14:57:45.767Z,100577.50
2023-09-16T15:00:12.869Z,100575.98
2023-09-16T15:02:40.117Z,100575.64
2023-09-16T15:05:07.902Z,100576.77
2023-09-16T15:07:34.665Z,100571.59
2023-09-16T15:10:04.622Z,100571.57
2023-09-16T15:12:31.651Z,100574.44
2023-09-16T15:14:58.564Z,100572.01
2023-09-16T15:17:25.986Z,100576.83
2023-09-16T15:19:53.186Z,100575.26
2023-09-16T15:22:20.719Z,100574.47
2023-09-16T15:24:48.334Z,100574.42
2023-09-16T15:27:15.200Z,100573.83
2023-09-16T15:29:42.360Z,100571.84
2023-09-16T15:32:34.510Z,100578.23
2023-09-16T15:34:55.994Z,100575.08
2023-09-16T15:37:24.505Z,100574.30
2023-09-16T15:39:51.447Z,100576.87
2023-09-16T15:42:18.374Z,100576.19
2023-09-16T15:44:48.302Z,100578.29
2023-09-16T15:47:15.057Z,100576.23
2023-09-16T15:49:42.027Z,100576.98
2023-09-16T15:52:09.255Z,100574.26
2023-09-16T15:54:35.871Z,100571.56
2023-09-16T15:57:04.129Z,100571.02
2023-09-16T15:59:31.085Z,100567.14
2023-09-16T16:02:02.739Z,100569.52
2023-09-16T16:04:30.265Z,100569.39
2023-09-16T16:06:57.195Z,100572.82
2023-09-16T16:09:24.112Z,100572.71
2023-09-16T16:11:53.006Z,100577.67
2023-09-16T16:14:19.921Z,100576.66
2023-09-16T16:16:47.145Z,100581.94
2023-09-16T16:19:14.115Z,100582.32
2023-09-16T16:21:44.016Z,100583.77
2023-09-16T16:25:32.677Z,100581.30
2023-09-16T16:28:00.677Z,100585.08
2023-09-16T16:30:28.343Z,100588.16
2023-09-16T16:32:55.999Z,100587.85
2023-09-16T16:35:23.821Z,100591.22
2023-09-16T16:37:52.012Z,100593.54
2023-09-16T16:40:20.019Z,100592.39
2023-09-16T16:42:48.591Z,100598.10
2023-09-16T16:45:17.017Z,100596.65
2023-09-16T16:47:47.051Z,100600.89
2023-09-16T16:50:17.982Z,100601.41
2023-09-16T16:52:45.767Z,100597.49
2023-09-16T16:55:13.914Z,100602.20
2023-09-16T16:57:41.892Z,100604.17
2023-09-16T17:00:09.908Z,100605.73
2023-09-16T17:02:37.938Z,100610.95
2023-09-16T17:05:06.532Z,100613.25
2023-09-16T17:07:34.505Z,100616.44
2023-09-16T17:10:02.415Z,100617.30
2023-09-16T17:12:30.372Z,100619.01
2023-09-16T17:14:58.129Z,100618.66
2023-09-16T17:17:25.817Z,100619.73
2023-09-16T17:19:54.348Z,100622.02
2023-09-16T17:22:22.187Z,100627.54
2023-09-16T17:24:52.287Z,100627.55
2023-09-16T17:27:20.627Z,100629.36
2023-09-16T17:29:48.463Z,100634.28
2023-09-16T17:32:17.404Z,100632.58
2023-09-16T17:34:45.556Z,100631.63
2023-09-16T17:37:13.307Z,100632.73
2023-09-16T17:39:41.525Z,100633.45
2023-09-16T17:42:09.618Z,100637.73
2023-09-16T17:44:37.784Z,100631.94
2023-09-16T17:47:16.169Z,100631.06
2023-09-16T17:49:44.101Z,100634.48
2023-09-16T17:52:11.842Z,100632.94
2023-09-16T17:54:39.694Z,100636.55
2023-09-16T17:57:07.444Z,100637.15
2023-09-16T17:59:35.140Z,100638.77
2023-09-16T18:02:03.213Z,100638.71
2023-09-16T18:04:31.099Z,100641.73
2023-09-16T18:06:58.722Z,100644.29
2023-09-16T18:09:26.594Z,100647.11
2023-09-16T18:11:54.274Z,100642.46
2023-09-16T18:14:23.345Z,100644.15
2023-09-16T18:16:52.218Z,100641.63
2023-09-16T18:19:20.383Z,100642.79
2023-09-16T18:21:48.289Z,100647.75
2023-09-16T18:24:16.002Z,100647.67
2023-09-16T18:26:43.652Z,100647.54
2023-09-16T18:29:11.379Z,100647.38
2023-09-16T18:31:39.443Z,100648.34
2023-09-16T18:34:07.123Z,100648.52
2023-09-16T18:36:36.578Z,100648.71
2023-09-16T18:39:04.825Z,100650.21
2023-09-16T18:41:32.620Z,100651.27
2023-09-16T18:44:05.531Z,100655.13
2023-09-16T18:46:33.771Z,100656.12
2023-09-16T18:49:01.736Z,100655.77
2023-09-16T18:51:29.755Z,100657.30
2023-09-16T18:53:57.749Z,100657.52
2023-09-16T18:56:25.619Z,100655.32
2023-09-16T18:58:53.755Z,100658.46
2023-09-16T19:01:22.490Z,100659.94
2023-09-16T19:03:51.068Z,100666.91
2023-09-16T19:06:19.192Z,100668.16
2023-09-16T19:08:47.035Z,100670.02
2023-09-16T19:11:18.115Z,100672.66
2023-09-16T19:13:46.036Z,100672.99
